sensor_id;sensor_type;location;lat;lon;timestamp;pressure;altitude;pressure_sealevel;temperature;humidity
48424;BME280;34232;42.502;26.014;2023-09-19T00:00:20;100450.78;;;18.31;69.11
48424;BME280;34232;42.502;26.014;2023-09-19T00:02:55;100454.47;;;18.30;69.56
48424;BME280;34232;42.502;26.014;2023-09-19T00:12:35;100459.78;;;18.13;70.11
48424;BME280;34232;42.502;26.014;2023-09-19T00:15:46;100448.41;;;18.03;70.41
48424;BME280;34232;42.502;26.014;2023-09-19T00:19:02;100452.75;;;17.96;70.70
48424;BME280;34232;42.502;26.014;2023-09-19T00:21:33;100451.72;;;17.89;70.96
48424;BME280;34232;42.502;26.014;2023-09-19T00:30:46;100444.72;;;17.80;71.80
48424;BME280;34232;42.502;26.014;2023-09-19T00:33:18;100440.09;;;17.82;71.75
48424;BME280;34232;42.502;26.014;2023-09-19T00:35:51;100436.44;;;17.83;71.76
48424;BME280;34232;42.502;26.014;2023-09-19T00:38:18;100443.06;;;17.87;71.48
48424;BME280;34232;42.502;26.014;2023-09-19T00:41:07;100443.75;;;17.89;71.61
48424;BME280;34232;42.502;26.014;2023-09-19T00:43:56;100434.44;;;17.85;72.08
48424;BME280;34232;42.502;26.014;2023-09-19T00:46:22;100437.41;;;17.82;72.20
48424;BME280;34232;42.502;26.014;2023-09-19T00:48:47;100436.22;;;17.76;72.72
48424;BME280;34232;42.502;26.014;2023-09-19T00:51:21;100441.03;;;17.73;73.19
48424;BME280;34232;42.502;26.014;2023-09-19T01:04:16;100438.31;;;17.57;74.21
48424;BME280;34232;42.502;26.014;2023-09-19T01:06:43;100435.31;;;17.60;74.47
48424;BME280;34232;42.502;26.014;2023-09-19T01:09:10;100434.34;;;17.61;74.52
48424;BME280;34232;42.502;26.014;2023-09-19T01:11:40;100438.97;;;17.59;74.26
48424;BME280;34232;42.502;26.014;2023-09-19T01:31:02;100435.66;;;17.57;75.02
48424;BME280;34232;42.502;26.014;2023-09-19T01:33:53;100429.47;;;17.56;74.59
48424;BME280;34232;42.502;26.014;2023-09-19T01:36:17;100425.97;;;17.47;74.97
48424;BME280;34232;42.502;26.014;2023-09-19T01:38:42;100424.31;;;17.46;75.28
48424;BME280;34232;42.502;26.014;2023-09-19T01:41:11;100427.28;;;17.43;75.72
48424;BME280;34232;42.502;26.014;2023-09-19T01:43:42;100428.81;;;17.46;75.79
48424;BME280;34232;42.502;26.014;2023-09-19T01:46:19;100423.78;;;17.43;75.94
48424;BME280;34232;42.502;26.014;2023-09-19T01:49:18;100417.94;;;17.39;75.97
48424;BME280;34232;42.502;26.014;2023-09-19T01:54:31;100416.63;;;17.35;76.25
48424;BME280;34232;42.502;26.014;2023-09-19T01:57:05;100416.94;;;17.32;76.67
48424;BME280;34232;42.502;26.014;2023-09-19T01:59:39;100426.56;;;17.25;76.63
48424;BME280;34232;42.502;26.014;2023-09-19T02:02:08;100425.25;;;17.29;75.94
48424;BME280;34232;42.502;26.014;2023-09-19T02:04:58;100422.44;;;17.31;76.02
48424;BME280;34232;42.502;26.014;2023-09-19T02:11:37;100414.25;;;17.24;76.51
48424;BME280;34232;42.502;26.014;2023-09-19T02:14:17;100412.94;;;17.28;75.97
48424;BME280;34232;42.502;26.014;2023-09-19T02:17:25;100415.59;;;17.28;75.84
48424;BME280;34232;42.502;26.014;2023-09-19T02:20:28;100414.25;;;17.24;76.01
48424;BME280;34232;42.502;26.014;2023-09-19T02:22:54;100416.22;;;17.22;76.00
48424;BME280;34232;42.502;26.014;2023-09-19T02:25:21;100410.59;;;17.25;76.27
48424;BME280;34232;42.502;26.014;2023-09-19T02:27:47;100404.13;;;17.28;76.35
48424;BME280;34232;42.502;26.014;2023-09-19T02:30:12;100403.81;;;17.31;76.43
48424;BME280;34232;42.502;26.014;2023-09-19T02:32:45;100404.81;;;17.38;76.79
48424;BME280;34232;42.502;26.014;2023-09-19T02:35:11;100415.66;;;17.44;76.16
48424;BME280;34232;42.502;26.014;2023-09-19T02:37:37;100408.69;;;17.52;75.53
48424;BME280;34232;42.502;26.014;2023-09-19T02:40:03;100408.03;;;17.58;75.26
48424;BME280;34232;42.502;26.014;2023-09-19T02:42:44;100407.03;;;17.59;74.74
48424;BME280;34232;42.502;26.014;2023-09-19T02:45:30;100414.97;;;17.42;73.83
48424;BME280;34232;42.502;26.014;2023-09-19T02:47:56;100412.63;;;17.31;74.31
48424;BME280;34232;42.502;26.014;2023-09-19T02:50:22;100410.94;;;17.30;74.34
48424;BME280;34232;42.502;26.014;2023-09-19T02:52:50;100408.59;;;17.27;74.25
48424;BME280;34232;42.502;26.014;2023-09-19T03:02:02;100401.84;;;17.07;75.62
48424;BME280;34232;42.502;26.014;2023-09-19T03:05:05;100392.88;;;17.08;76.34
48424;BME280;34232;42.502;26.014;2023-09-19T03:07:31;100387.94;;;17.13;76.81
48424;BME280;34232;42.502;26.014;2023-09-19T03:10:24;100391.63;;;17.20;76.30
48424;BME280;34232;42.502;26.014;2023-09-19T03:12:51;100388.44;;;17.17;74.92
48424;BME280;34232;42.502;26.014;2023-09-19T03:15:22;100391.28;;;17.15;74.98
48424;BME280;34232;42.502;26.014;2023-09-19T03:18:17;100387.06;;;17.04;75.82
48424;BME280;34232;42.502;26.014;2023-09-19T03:20:43;100383.13;;;16.83;76.74
48424;BME280;34232;42.502;26.014;2023-09-19T03:23:09;100387.47;;;16.84;76.42
48424;BME280;34232;42.502;26.014;2023-09-19T03:26:16;100379.81;;;16.81;75.89
48424;BME280;34232;42.502;26.014;2023-09-19T03:28:42;100378.94;;;16.72;75.82
48424;BME280;34232;42.502;26.014;2023-09-19T03:31:08;100384.72;;;16.67;76.05
48424;BME280;34232;42.502;26.014;2023-09-19T03:33:34;100391.88;;;16.67;76.36
48424;BME280;34232;42.502;26.014;2023-09-19T03:36:22;100386.69;;;16.65;76.36
48424;BME280;34232;42.502;26.014;2023-09-19T03:38:48;100388.94;;;16.60;76.80
48424;BME280;34232;42.502;26.014;2023-09-19T03:41:20;100392.28;;;16.62;76.93
48424;BME280;34232;42.502;26.014;2023-09-19T03:44:47;100386.03;;;16.63;76.75
48424;BME280;34232;42.502;26.014;2023-09-19T03:48:14;100384.59;;;16.51;77.54
48424;BME280;34232;42.502;26.014;2023-09-19T03:50:43;100384.59;;;16.51;78.25
48424;BME280;34232;42.502;26.014;2023-09-19T03:53:09;100391.63;;;16.60;77.58
48424;BME280;34232;42.502;26.014;2023-09-19T03:55:56;100390.63;;;16.61;77.27
48424;BME280;34232;42.502;26.014;2023-09-19T03:58:23;100389.25;;;16.57;76.84
48424;BME280;34232;42.502;26.014;2023-09-19T04:01:36;100396.59;;;16.55;76.90
48424;BME280;34232;42.502;26.014;2023-09-19T04:04:31;100400.56;;;16.59;76.62
48424;BME280;34232;42.502;26.014;2023-09-19T04:10:05;100403.53;;;16.56;76.12
48424;BME280;34232;42.502;26.014;2023-09-19T04:12:32;100406.88;;;16.58;76.25
48424;BME280;34232;42.502;26.014;2023-09-19T04:14:57;100404.91;;;16.60;76.24
48424;BME280;34232;42.502;26.014;2023-09-19T04:17:24;100404.06;;;16.60;75.69
48424;BME280;34232;42.502;26.014;2023-09-19T04:19:50;100405.06;;;16.59;75.87
48424;BME280;34232;42.502;26.014;2023-09-19T04:22:15;100414.16;;;16.56;75.75
48424;BME280;34232;42.502;26.014;2023-09-19T04:25:01;100408.84;;;16.56;76.09
48424;BME280;34232;42.502;26.014;2023-09-19T04:27:27;100403.88;;;16.53;76.61
48424;BME280;34232;42.502;26.014;2023-09-19T04:30:09;100407.22;;;16.55;77.01
48424;BME280;34232;42.502;26.014;2023-09-19T04:32:53;100399.06;;;16.57;77.41
48424;BME280;34232;42.502;26.014;2023-09-19T04:35:42;100409.94;;;16.63;78.45
48424;BME280;34232;42.502;26.014;2023-09-19T04:39:07;100409.00;;;16.72;79.04
48424;BME280;34232;42.502;26.014;2023-09-19T04:46:39;100405.97;;;16.93;78.25
48424;BME280;34232;42.502;26.014;2023-09-19T04:49:10;100406.84;;;17.02;77.68
48424;BME280;34232;42.502;26.014;2023-09-19T04:52:24;100410.53;;;17.09;77.45
48424;BME280;34232;42.502;26.014;2023-09-19T04:55:28;100402.22;;;17.12;77.66
48424;BME280;34232;42.502;26.014;2023-09-19T04:57:56;100405.25;;;17.17;78.10
48424;BME280;34232;42.502;26.014;2023-09-19T05:00:22;100408.59;;;17.27;77.87
48424;BME280;34232;42.502;26.014;2023-09-19T05:03:05;100416.13;;;17.32;78.32
48424;BME280;34232;42.502;26.014;2023-09-19T05:05:34;100410.47;;;17.35;78.64
48424;BME280;34232;42.502;26.014;2023-09-19T05:08:06;100413.97;;;17.43;78.34
48424;BME280;34232;42.502;26.014;2023-09-19T05:10:54;100415.34;;;17.56;77.80
48424;BME280;34232;42.502;26.014;2023-09-19T05:13:22;100415.19;;;17.57;77.32
48424;BME280;34232;42.502;26.014;2023-09-19T05:16:11;100409.41;;;17.70;78.04
48424;BME280;34232;42.502;26.014;2023-09-19T05:18:58;100408.28;;;17.80;77.80
48424;BME280;34232;42.502;26.014;2023-09-19T05:21:47;100401.78;;;17.91;77.55
48424;BME280;34232;42.502;26.014;2023-09-19T05:24:36;100413.16;;;18.01;77.53
48424;BME280;34232;42.502;26.014;2023-09-19T05:27:05;100411.31;;;18.10;76.85
48424;BME280;34232;42.502;26.014;2023-09-19T05:29:50;100404.47;;;18.24;76.57
48424;BME280;34232;42.502;26.014;2023-09-19T05:32:19;100411.63;;;18.39;75.76
48424;BME280;34232;42.502;26.014;2023-09-19T05:34:46;100418.09;;;18.53;74.30
48424;BME280;34232;42.502;26.014;2023-09-19T05:40:34;100410.59;;;18.81;73.39
48424;BME280;34232;42.502;26.014;2023-09-19T05:43:20;100404.22;;;18.90;73.08
48424;BME280;34232;42.502;26.014;2023-09-19T05:45:46;100407.69;;;19.07;70.41
48424;BME280;34232;42.502;26.014;2023-09-19T05:49:35;100408.97;;;19.19;71.87
48424;BME280;34232;42.502;26.014;2023-09-19T05:52:30;100403.88;;;19.32;72.38
48424;BME280;34232;42.502;26.014;2023-09-19T05:55:53;100402.16;;;19.47;72.02
48424;BME280;34232;42.502;26.014;2023-09-19T05:58:41;100398.78;;;19.62;72.10
48424;BME280;34232;42.502;26.014;2023-09-19T06:01:52;100399.03;;;19.75;70.86
48424;BME280;34232;42.502;26.014;2023-09-19T06:05:17;100404.25;;;19.91;70.16
48424;BME280;34232;42.502;26.014;2023-09-19T06:07:43;100402.16;;;20.01;69.69
48424;BME280;34232;42.502;26.014;2023-09-19T06:13:52;100385.59;;;20.29;68.67
48424;BME280;34232;42.502;26.014;2023-09-19T06:16:57;100388.66;;;20.40;68.46
48424;BME280;34232;42.502;26.014;2023-09-19T06:20:08;100388.03;;;20.53;67.63
48424;BME280;34232;42.502;26.014;2023-09-19T06:22:54;100390.25;;;20.64;67.07
48424;BME280;34232;42.502;26.014;2023-09-19T06:25:30;100391.50;;;20.76;67.03
48424;BME280;34232;42.502;26.014;2023-09-19T06:28:56;100380.78;;;20.91;66.27
48424;BME280;34232;42.502;26.014;2023-09-19T06:32:02;100380.13;;;21.04;65.96
48424;BME280;34232;42.502;26.014;2023-09-19T06:34:59;100377.59;;;21.17;64.75
48424;BME280;34232;42.502;26.014;2023-09-19T06:37:49;100385.91;;;21.37;63.73
48424;BME280;34232;42.502;26.014;2023-09-19T06:40:18;100379.00;;;21.42;63.06
48424;BME280;34232;42.502;26.014;2023-09-19T06:42:53;100376.63;;;21.54;62.36
48424;BME280;34232;42.502;26.014;2023-09-19T06:49:03;100377.47;;;21.97;61.55
48424;BME280;34232;42.502;26.014;2023-09-19T06:51:32;100383.50;;;22.20;60.43
48424;BME280;34232;42.502;26.014;2023-09-19T06:54:18;100384.91;;;22.44;59.76
48424;BME280;34232;42.502;26.014;2023-09-19T07:00:49;100383.25;;;22.71;56.92
48424;BME280;34232;42.502;26.014;2023-09-19T07:03:17;100388.94;;;22.89;54.96
48424;BME280;34232;42.502;26.014;2023-09-19T07:05:48;100391.53;;;23.11;55.40
48424;BME280;34232;42.502;26.014;2023-09-19T07:08:13;100394.06;;;23.19;54.30
48424;BME280;34232;42.502;26.014;2023-09-19T07:10:40;100397.44;;;23.34;52.67
48424;BME280;34232;42.502;26.014;2023-09-19T07:13:14;100394.53;;;23.29;51.49
48424;BME280;34232;42.502;26.014;2023-09-19T07:15:42;100390.06;;;23.49;52.20
48424;BME280;34232;42.502;26.014;2023-09-19T07:18:12;100392.97;;;23.54;51.20
48424;BME280;34232;42.502;26.014;2023-09-19T07:30:47;100380.47;;;24.60;44.51
48424;BME280;34232;42.502;26.014;2023-09-19T07:33:13;100371.13;;;24.69;43.64
48424;BME280;34232;42.502;26.014;2023-09-19T07:36:22;100368.22;;;24.71;41.34
48424;BME280;34232;42.502;26.014;2023-09-19T07:38:55;100360.31;;;24.89;44.77
48424;BME280;34232;42.502;26.014;2023-09-19T07:41:23;100371.25;;;25.07;43.72
48424;BME280;34232;42.502;26.014;2023-09-19T07:43:49;100375.13;;;25.25;42.04
48424;BME280;34232;42.502;26.014;2023-09-19T07:46:34;100349.84;;;25.26;40.97
48424;BME280;34232;42.502;26.014;2023-09-19T07:49:21;100360.47;;;25.52;41.08
48424;BME280;34232;42.502;26.014;2023-09-19T07:52:06;100354.16;;;25.71;41.12
48424;BME280;34232;42.502;26.014;2023-09-19T07:54:53;100352.09;;;25.67;41.48
48424;BME280;34232;42.502;26.014;2023-09-19T07:57:19;100349.03;;;25.57;40.53
48424;BME280;34232;42.502;26.014;2023-09-19T08:03:44;100342.53;;;25.33;39.89
48424;BME280;34232;42.502;26.014;2023-09-19T08:06:20;100338.97;;;25.39;40.69
48424;BME280;34232;42.502;26.014;2023-09-19T08:08:46;100336.63;;;25.49;41.61
48424;BME280;34232;42.502;26.014;2023-09-19T08:11:34;100332.66;;;25.58;40.74
48424;BME280;34232;42.502;26.014;2023-09-19T08:14:12;100334.25;;;25.72;40.73
48424;BME280;34232;42.502;26.014;2023-09-19T08:27:28;100318.53;;;26.62;39.48
48424;BME280;34232;42.502;26.014;2023-09-19T08:33:58;100312.00;;;27.06;38.76
48424;BME280;34232;42.502;26.014;2023-09-19T08:36:44;100313.13;;;27.29;37.37
48424;BME280;34232;42.502;26.014;2023-09-19T08:39:11;100313.50;;;27.32;38.41
48424;BME280;34232;42.502;26.014;2023-09-19T08:41:36;100311.13;;;27.54;38.22
48424;BME280;34232;42.502;26.014;2023-09-19T08:44:05;100310.84;;;27.74;37.02
48424;BME280;34232;42.502;26.014;2023-09-19T08:46:34;100314.28;;;27.93;36.25
48424;BME280;34232;42.502;26.014;2023-09-19T08:59:09;100305.91;;;27.82;35.44
48424;BME280;34232;42.502;26.014;2023-09-19T09:01:56;100293.28;;;27.35;36.23
48424;BME280;34232;42.502;26.014;2023-09-19T09:04:23;100298.47;;;26.88;36.71
48424;BME280;34232;42.502;26.014;2023-09-19T09:07:11;100296.59;;;26.89;36.74
48424;BME280;34232;42.502;26.014;2023-09-19T09:29:55;100268.16;;;28.98;34.73
48424;BME280;34232;42.502;26.014;2023-09-19T09:32:30;100274.69;;;29.13;33.30
48424;BME280;34232;42.502;26.014;2023-09-19T09:35:06;100262.97;;;29.24;33.61
48424;BME280;34232;42.502;26.014;2023-09-19T09:40:46;100263.47;;;29.21;32.70
48424;BME280;34232;42.502;26.014;2023-09-19T09:46:07;100252.50;;;28.36;33.33
48424;BME280;34232;42.502;26.014;2023-09-19T09:55:58;100242.00;;;29.48;32.66
48424;BME280;34232;42.502;26.014;2023-09-19T09:58:28;100239.78;;;29.62;31.71
48424;BME280;34232;42.502;26.014;2023-09-19T10:00:58;100240.03;;;29.77;30.82
48424;BME280;34232;42.502;26.014;2023-09-19T10:03:45;100230.81;;;29.78;30.84
48424;BME280;34232;42.502;26.014;2023-09-19T10:09:47;100236.47;;;29.60;31.41
48424;BME280;34232;42.502;26.014;2023-09-19T10:12:15;100224.47;;;29.73;32.16
48424;BME280;34232;42.502;26.014;2023-09-19T10:24:47;100219.09;;;29.94;31.52
48424;BME280;34232;42.502;26.014;2023-09-19T10:27:17;100214.59;;;30.00;31.45
48424;BME280;34232;42.502;26.014;2023-09-19T10:29:45;100202.44;;;30.24;31.61
48424;BME280;34232;42.502;26.014;2023-09-19T10:32:15;100201.88;;;30.44;30.87
48424;BME280;34232;42.502;26.014;2023-09-19T10:45:11;100198.31;;;30.00;30.57
48424;BME280;34232;42.502;26.014;2023-09-19T10:47:40;100193.13;;;29.99;30.61
48424;BME280;34232;42.502;26.014;2023-09-19T10:50:05;100180.44;;;30.04;30.14
48424;BME280;34232;42.502;26.014;2023-09-19T10:52:32;100179.81;;;29.80;30.12
48424;BME280;34232;42.502;26.014;2023-09-19T10:55:05;100174.00;;;29.93;29.68
48424;BME280;34232;42.502;26.014;2023-09-19T10:57:32;100171.03;;;30.12;30.14
48424;BME280;34232;42.502;26.014;2023-09-19T11:39:24;100132.22;;;28.77;32.01
48424;BME280;34232;42.502;26.014;2023-09-19T11:48:26;100112.22;;;28.95;31.65
48424;BME280;34232;42.502;26.014;2023-09-19T11:50:52;100104.00;;;28.90;31.50
48424;BME280;34232;42.502;26.014;2023-09-19T11:53:38;100105.84;;;28.44;31.78
48424;BME280;34232;42.502;26.014;2023-09-19T11:56:24;100103.50;;;28.19;32.64
48424;BME280;34232;42.502;26.014;2023-09-19T11:59:30;100092.84;;;27.66;33.04
48424;BME280;34232;42.502;26.014;2023-09-19T12:01:57;100100.03;;;27.72;33.18
48424;BME280;34232;42.502;26.014;2023-09-19T12:04:36;100095.91;;;27.70;33.00
48424;BME280;34232;42.502;26.014;2023-09-19T12:07:22;100094.38;;;27.85;33.05
48424;BME280;34232;42.502;26.014;2023-09-19T12:10:27;100089.16;;;27.96;33.23
48424;BME280;34232;42.502;26.014;2023-09-19T12:12:53;100083.66;;;27.91;32.53
48424;BME280;34232;42.502;26.014;2023-09-19T12:15:26;100089.53;;;27.88;33.62
48424;BME280;34232;42.502;26.014;2023-09-19T12:18:46;100076.91;;;27.93;33.93
48424;BME280;34232;42.502;26.014;2023-09-19T12:21:55;100080.13;;;27.90;34.18
48424;BME280;34232;42.502;26.014;2023-09-19T12:25:06;100067.88;;;27.88;34.01
48424;BME280;34232;42.502;26.014;2023-09-19T12:27:45;100065.25;;;27.93;33.16
48424;BME280;34232;42.502;26.014;2023-09-19T12:30:40;100065.91;;;27.71;32.91
48424;BME280;34232;42.502;26.014;2023-09-19T12:33:46;100059.09;;;27.69;33.60
48424;BME280;34232;42.502;26.014;2023-09-19T12:36:38;100049.31;;;27.79;34.00
48424;BME280;34232;42.502;26.014;2023-09-19T12:39:46;100051.56;;;27.71;32.99
48424;BME280;34232;42.502;26.014;2023-09-19T12:42:32;100050.75;;;27.70;33.72
48424;BME280;34232;42.502;26.014;2023-09-19T12:45:15;100048.16;;;27.40;33.62
48424;BME280;34232;42.502;26.014;2023-09-19T12:48:24;100043.34;;;27.31;33.96
48424;BME280;34232;42.502;26.014;2023-09-19T13:00:41;100032.84;;;27.46;37.42
48424;BME280;34232;42.502;26.014;2023-09-19T13:06:38;100031.34;;;27.50;37.69
48424;BME280;34232;42.502;26.014;2023-09-19T13:25:15;100020.34;;;28.65;33.49
48424;BME280;34232;42.502;26.014;2023-09-19T13:28:04;100019.75;;;28.46;31.60
48424;BME280;34232;42.502;26.014;2023-09-19T13:30:37;100021.13;;;28.32;31.21
48424;BME280;34232;42.502;26.014;2023-09-19T13:33:11;100017.66;;;28.20;31.06
48424;BME280;34232;42.502;26.014;2023-09-19T13:35:55;100018.13;;;28.17;31.48
48424;BME280;34232;42.502;26.014;2023-09-19T13:45:22;100020.88;;;28.05;34.18
48424;BME280;34232;42.502;26.014;2023-09-19T13:47:50;100019.56;;;28.08;33.86
48424;BME280;34232;42.502;26.014;2023-09-19T13:50:45;100019.47;;;28.03;33.95
48424;BME280;34232;42.502;26.014;2023-09-19T14:10:39;100009.16;;;27.88;33.93
48424;BME280;34232;42.502;26.014;2023-09-19T14:13:04;100003.53;;;27.90;33.36
48424;BME280;34232;42.502;26.014;2023-09-19T14:15:31;100000.59;;;27.79;33.39
48424;BME280;34232;42.502;26.014;2023-09-19T14:17:58;100005.53;;;27.82;34.32
48424;BME280;34232;42.502;26.014;2023-09-19T14:20:24;100002.94;;;27.88;34.36
48424;BME280;34232;42.502;26.014;2023-09-19T14:22:52;100007.28;;;27.89;34.02
48424;BME280;34232;42.502;26.014;2023-09-19T14:25:17;99990.75;;;27.73;33.77
48424;BME280;34232;42.502;26.014;2023-09-19T14:27:43;99994.72;;;27.82;32.97
48424;BME280;34232;42.502;26.014;2023-09-19T14:30:11;100004.22;;;27.85;33.89
48424;BME280;34232;42.502;26.014;2023-09-19T14:32:56;99995.88;;;27.86;35.28
48424;BME280;34232;42.502;26.014;2023-09-19T14:36:03;99991.06;;;27.89;34.59
48424;BME280;34232;42.502;26.014;2023-09-19T14:38:31;99993.41;;;27.85;33.90
48424;BME280;34232;42.502;26.014;2023-09-19T14:41:00;99987.09;;;27.68;33.72
48424;BME280;34232;42.502;26.014;2023-09-19T14:43:26;99986.75;;;27.64;34.08
48424;BME280;34232;42.502;26.014;2023-09-19T14:49:16;99982.19;;;27.53;34.48
48424;BME280;34232;42.502;26.014;2023-09-19T14:52:02;99984.88;;;27.53;35.01
48424;BME280;34232;42.502;26.014;2023-09-19T14:54:49;99980.88;;;27.67;36.14
48424;BME280;34232;42.502;26.014;2023-09-19T14:57:16;99990.63;;;27.68;35.31
48424;BME280;34232;42.502;26.014;2023-09-19T15:00:42;99985.47;;;27.67;36.27
48424;BME280;34232;42.502;26.014;2023-09-19T15:03:40;99985.00;;;27.70;36.44
48424;BME280;34232;42.502;26.014;2023-09-19T15:06:10;99992.41;;;27.74;36.71
48424;BME280;34232;42.502;26.014;2023-09-19T15:08:45;99994.34;;;27.79;36.63
48424;BME280;34232;42.502;26.014;2023-09-19T15:11:16;99989.75;;;27.79;36.65
48424;BME280;34232;42.502;26.014;2023-09-19T15:13:43;99990.94;;;27.83;37.63
48424;BME280;34232;42.502;26.014;2023-09-19T15:16:10;99992.00;;;27.82;36.88
48424;BME280;34232;42.502;26.014;2023-09-19T15:18:37;99988.72;;;27.80;37.94
48424;BME280;34232;42.502;26.014;2023-09-19T15:21:28;99990.94;;;27.83;37.18
48424;BME280;34232;42.502;26.014;2023-09-19T15:37:42;99996.09;;;27.33;38.90
48424;BME280;34232;42.502;26.014;2023-09-19T15:40:08;100001.13;;;27.30;38.32
48424;BME280;34232;42.502;26.014;2023-09-19T15:42:36;99991.75;;;27.21;39.17
48424;BME280;34232;42.502;26.014;2023-09-19T15:45:23;100001.38;;;27.16;39.50
48424;BME280;34232;42.502;26.014;2023-09-19T15:48:10;100006.44;;;27.13;38.90
48424;BME280;34232;42.502;26.014;2023-09-19T15:50:37;99994.13;;;27.05;40.60
48424;BME280;34232;42.502;26.014;2023-09-19T15:53:03;99996.69;;;27.00;39.70
48424;BME280;34232;42.502;26.014;2023-09-19T15:55:31;99989.75;;;26.93;40.38
48424;BME280;34232;42.502;26.014;2023-09-19T15:57:57;99982.78;;;26.85;40.85
48424;BME280;34232;42.502;26.014;2023-09-19T16:00:22;99991.34;;;26.82;41.47
48424;BME280;34232;42.502;26.014;2023-09-19T16:03:20;100003.44;;;26.68;40.77
48424;BME280;34232;42.502;26.014;2023-09-19T16:06:22;99992.84;;;26.55;41.29
48424;BME280;34232;42.502;26.014;2023-09-19T16:08:52;99991.41;;;26.40;41.07
48424;BME280;34232;42.502;26.014;2023-09-19T16:11:19;99991.13;;;26.30;41.72
48424;BME280;34232;42.502;26.014;2023-09-19T16:13:49;99999.91;;;26.26;41.84
48424;BME280;34232;42.502;26.014;2023-09-19T16:17:00;100002.56;;;26.14;41.44
48424;BME280;34232;42.502;26.014;2023-09-19T16:20:11;100006.41;;;26.06;41.62
48424;BME280;34232;42.502;26.014;2023-09-19T16:22:58;100009.41;;;25.98;42.38
48424;BME280;34232;42.502;26.014;2023-09-19T16:25:25;100015.34;;;25.89;42.27
48424;BME280;34232;42.502;26.014;2023-09-19T16:27:50;100012.50;;;25.84;42.39
48424;BME280;34232;42.502;26.014;2023-09-19T16:30:16;100006.69;;;25.68;42.28
48424;BME280;34232;42.502;26.014;2023-09-19T16:32:43;100008.25;;;25.58;42.83
48424;BME280;34232;42.502;26.014;2023-09-19T16:35:09;100014.84;;;25.43;42.94
48424;BME280;34232;42.502;26.014;2023-09-19T16:37:47;100015.59;;;25.32;43.41
48424;BME280;34232;42.502;26.014;2023-09-19T16:41:01;100019.44;;;25.18;44.06
48424;BME280;34232;42.502;26.014;2023-09-19T16:43:48;100012.97;;;25.01;44.54
48424;BME280;34232;42.502;26.014;2023-09-19T16:47:13;100018.00;;;24.91;44.91
48424;BME280;34232;42.502;26.014;2023-09-19T16:50:00;100027.63;;;24.80;45.40
48424;BME280;34232;42.502;26.014;2023-09-19T16:52:46;100025.19;;;24.72;45.68
48424;BME280;34232;42.502;26.014;2023-09-19T16:55:52;100041.47;;;24.59;45.21
48424;BME280;34232;42.502;26.014;2023-09-19T16:58:17;100041.66;;;24.57;45.67
48424;BME280;34232;42.502;26.014;2023-09-19T17:00:43;100035.06;;;24.53;45.74
48424;BME280;34232;42.502;26.014;2023-09-19T17:03:11;100036.72;;;24.54;45.90
48424;BME280;34232;42.502;26.014;2023-09-19T17:05:38;100037.59;;;24.48;46.14
48424;BME280;34232;42.502;26.014;2023-09-19T17:08:06;100035.16;;;24.40;45.68
48424;BME280;34232;42.502;26.014;2023-09-19T17:10:35;100032.53;;;24.33;45.15
48424;BME280;34232;42.502;26.014;2023-09-19T17:13:40;100034.25;;;24.15;45.55
48424;BME280;34232;42.502;26.014;2023-09-19T17:16:45;100034.69;;;24.05;45.53
48424;BME280;34232;42.502;26.014;2023-09-19T17:20:11;100044.28;;;23.88;45.96
48424;BME280;34232;42.502;26.014;2023-09-19T17:22:37;100038.97;;;23.75;46.64
48424;BME280;34232;42.502;26.014;2023-09-19T17:25:03;100036.94;;;23.63;46.96
48424;BME280;34232;42.502;26.014;2023-09-19T17:27:29;100040.47;;;23.57;47.92
48424;BME280;34232;42.502;26.014;2023-09-19T17:29:54;100041.72;;;23.42;49.35
48424;BME280;34232;42.502;26.014;2023-09-19T17:32:20;100048.56;;;23.31;48.64
48424;BME280;34232;42.502;26.014;2023-09-19T17:34:47;100060.13;;;23.31;49.17
48424;BME280;34232;42.502;26.014;2023-09-19T17:37:15;100069.84;;;23.26;47.20
48424;BME280;34232;42.502;26.014;2023-09-19T17:39:40;100065.50;;;23.25;45.99
48424;BME280;34232;42.502;26.014;2023-09-19T17:42:06;100069.63;;;23.27;46.27
48424;BME280;34232;42.502;26.014;2023-09-19T17:44:33;100071.91;;;23.24;46.20
48424;BME280;34232;42.502;26.014;2023-09-19T17:47:01;100077.91;;;23.26;46.03
48424;BME280;34232;42.502;26.014;2023-09-19T17:49:27;100079.97;;;23.30;46.28
48424;BME280;34232;42.502;26.014;2023-09-19T17:51:52;100089.91;;;23.36;46.84
48424;BME280;34232;42.502;26.014;2023-09-19T17:54:18;100095.66;;;23.40;47.14
48424;BME280;34232;42.502;26.014;2023-09-19T17:56:44;100094.81;;;23.39;46.87
48424;BME280;34232;42.502;26.014;2023-09-19T17:59:29;100111.78;;;23.40;46.78
48424;BME280;34232;42.502;26.014;2023-09-19T18:01:55;100105.16;;;23.43;47.51
48424;BME280;34232;42.502;26.014;2023-09-19T18:04:20;100104.75;;;23.39;46.88
48424;BME280;34232;42.502;26.014;2023-09-19T18:06:45;100107.22;;;23.41;47.24
48424;BME280;34232;42.502;26.014;2023-09-19T18:09:16;100116.75;;;23.43;48.03
48424;BME280;34232;42.502;26.014;2023-09-19T18:11:44;100117.56;;;23.44;48.63
48424;BME280;34232;42.502;26.014;2023-09-19T18:14:33;100125.00;;;23.42;49.09
48424;BME280;34232;42.502;26.014;2023-09-19T18:17:22;100117.97;;;23.41;49.50
48424;BME280;34232;42.502;26.014;2023-09-19T18:19:48;100110.75;;;23.28;50.71
48424;BME280;34232;42.502;26.014;2023-09-19T18:22:14;100121.91;;;23.25;51.49
48424;BME280;34232;42.502;26.014;2023-09-19T18:24:40;100123.78;;;23.31;52.43
48424;BME280;34232;42.502;26.014;2023-09-19T18:27:07;100133.69;;;23.24;53.44